sensor_id;sensor_type;location;lat;lon;timestamp;temperature;humidity
37906;DHT22;23739;51.448;6.674;2022-12-18T00:03:48;-4.10;99.90
37906;DHT22;23739;51.448;6.674;2022-12-18T00:24:13;-3.90;99.90
37906;DHT22;23739;51.448;6.674;2022-12-18T00:26:49;-3.90;99.90
37906;DHT22;23739;51.448;6.674;2022-12-18T00:29:14;-4.00;99.90
37906;DHT22;23739;51.448;6.674;2022-12-18T00:31:40;-4.00;99.90
37906;DHT22;23739;51.448;6.674;2022-12-18T00:58:07;-3.80;99.90
37906;DHT22;23739;51.448;6.674;2022-12-18T01:00:33;-3.80;99.90
37906;DHT22;23739;51.448;6.674;2022-12-18T01:02:59;-3.80;99.90
37906;DHT22;23739;51.448;6.674;2022-12-18T01:05:25;-3.80;99.90
37906;DHT22;23739;51.448;6.674;2022-12-18T01:07:50;-3.90;99.90
37906;DHT22;23739;51.448;6.674;2022-12-18T01:10:16;-3.90;99.90
37906;DHT22;23739;51.448;6.674;2022-12-18T01:12:42;-4.00;99.90
37906;DHT22;23739;51.448;6.674;2022-12-18T01:15:08;-4.00;99.90
37906;DHT22;23739;51.448;6.674;2022-12-18T01:17:34;-4.00;99.90
37906;DHT22;23739;51.448;6.674;2022-12-18T01:20:00;-4.10;99.90
37906;DHT22;23739;51.448;6.674;2022-12-18T01:22:26;-4.00;99.90
37906;DHT22;23739;51.448;6.674;2022-12-18T01:24:51;-4.00;99.90
37906;DHT22;23739;51.448;6.674;2022-12-18T01:27:17;-4.00;99.90
37906;DHT22;23739;51.448;6.674;2022-12-18T01:29:43;-4.10;99.90
37906;DHT22;23739;51.448;6.674;2022-12-18T01:32:08;-4.10;99.90
37906;DHT22;23739;51.448;6.674;2022-12-18T01:34:37;-4.10;99.90
37906;DHT22;23739;51.448;6.674;2022-12-18T01:37:03;-4.10;99.90
37906;DHT22;23739;51.448;6.674;2022-12-18T01:39:29;-4.20;99.90
37906;DHT22;23739;51.448;6.674;2022-12-18T01:41:54;-4.10;99.90
37906;DHT22;23739;51.448;6.674;2022-12-18T01:47:18;-4.00;99.90
37906;DHT22;23739;51.448;6.674;2022-12-18T01:49:45;-4.10;99.90
37906;DHT22;23739;51.448;6.674;2022-12-18T01:52:10;-4.10;99.90
37906;DHT22;23739;51.448;6.674;2022-12-18T01:54:36;-4.10;99.90
37906;DHT22;23739;51.448;6.674;2022-12-18T01:57:02;-4.10;99.90
37906;DHT22;23739;51.448;6.674;2022-12-18T01:59:27;-4.10;99.90
37906;DHT22;23739;51.448;6.674;2022-12-18T02:01:54;-4.20;99.90
37906;DHT22;23739;51.448;6.674;2022-12-18T02:04:20;-4.20;99.90
37906;DHT22;23739;51.448;6.674;2022-12-18T02:06:47;-4.20;99.90
37906;DHT22;23739;51.448;6.674;2022-12-18T02:09:18;-4.30;99.90
37906;DHT22;23739;51.448;6.674;2022-12-18T02:14:28;-4.40;99.90
37906;DHT22;23739;51.448;6.674;2022-12-18T02:27:00;-4.30;99.90
37906;DHT22;23739;51.448;6.674;2022-12-18T02:29:32;-4.30;99.90
37906;DHT22;23739;51.448;6.674;2022-12-18T02:31:59;-4.40;99.90
37906;DHT22;23739;51.448;6.674;2022-12-18T02:34:29;-4.20;99.90
37906;DHT22;23739;51.448;6.674;2022-12-18T02:36:55;-4.30;99.90
37906;DHT22;23739;51.448;6.674;2022-12-18T02:39:22;-4.20;99.90
37906;DHT22;23739;51.448;6.674;2022-12-18T02:41:49;-4.20;99.90
37906;DHT22;23739;51.448;6.674;2022-12-18T02:44:14;-4.20;99.90
37906;DHT22;23739;51.448;6.674;2022-12-18T02:46:48;-4.30;99.90
37906;DHT22;23739;51.448;6.674;2022-12-18T02:54:08;-4.40;99.90
37906;DHT22;23739;51.448;6.674;2022-12-18T02:56:46;-4.30;99.90
37906;DHT22;23739;51.448;6.674;2022-12-18T02:59:13;-4.20;99.90
37906;DHT22;23739;51.448;6.674;2022-12-18T03:04:49;-4.30;99.90
37906;DHT22;23739;51.448;6.674;2022-12-18T03:06:56;-4.30;99.90
37906;DHT22;23739;51.448;6.674;2022-12-18T03:09:29;-4.20;99.90
37906;DHT22;23739;51.448;6.674;2022-12-18T03:11:58;-4.30;99.90
37906;DHT22;23739;51.448;6.674;2022-12-18T03:14:44;-4.40;99.90
37906;DHT22;23739;51.448;6.674;2022-12-18T03:17:11;-4.20;99.90
37906;DHT22;23739;51.448;6.674;2022-12-18T03:19:38;-4.10;99.90
37906;DHT22;23739;51.448;6.674;2022-12-18T03:22:05;-4.10;99.90
37906;DHT22;23739;51.448;6.674;2022-12-18T03:24:32;-4.10;99.90
37906;DHT22;23739;51.448;6.674;2022-12-18T03:27:00;-4.10;99.90
37906;DHT22;23739;51.448;6.674;2022-12-18T03:29:31;-4.10;99.90
37906;DHT22;23739;51.448;6.674;2022-12-18T03:32:05;-4.00;99.90
37906;DHT22;23739;51.448;6.674;2022-12-18T03:34:32;-4.10;99.90
37906;DHT22;23739;51.448;6.674;2022-12-18T03:36:58;-4.10;99.90
37906;DHT22;23739;51.448;6.674;2022-12-18T03:39:27;-4.00;99.90
37906;DHT22;23739;51.448;6.674;2022-12-18T03:49:14;-3.80;99.90
37906;DHT22;23739;51.448;6.674;2022-12-18T03:54:06;-3.80;99.90
37906;DHT22;23739;51.448;6.674;2022-12-18T03:56:36;-3.70;99.90
37906;DHT22;23739;51.448;6.674;2022-12-18T03:59:02;-3.70;99.90
37906;DHT22;23739;51.448;6.674;2022-12-18T04:01:30;-3.60;99.90
37906;DHT22;23739;51.448;6.674;2022-12-18T04:03:58;-0.10;99.90
37906;DHT22;23739;51.448;6.674;2022-12-18T04:06:25;-3.50;99.90
37906;DHT22;23739;51.448;6.674;2022-12-18T04:08:51;-3.50;99.90
37906;DHT22;23739;51.448;6.674;2022-12-18T04:11:17;-3.50;99.90
37906;DHT22;23739;51.448;6.674;2022-12-18T04:13:43;-3.50;99.90
37906;DHT22;23739;51.448;6.674;2022-12-18T04:16:09;-3.40;99.90
37906;DHT22;23739;51.448;6.674;2022-12-18T04:18:37;-3.50;99.90
37906;DHT22;23739;51.448;6.674;2022-12-18T04:21:02;-3.60;99.90
37906;DHT22;23739;51.448;6.674;2022-12-18T04:23:28;-3.50;99.90
37906;DHT22;23739;51.448;6.674;2022-12-18T04:25:54;-3.50;99.90
37906;DHT22;23739;51.448;6.674;2022-12-18T04:28:20;-3.50;99.90
37906;DHT22;23739;51.448;6.674;2022-12-18T04:30:45;-3.50;99.90
37906;DHT22;23739;51.448;6.674;2022-12-18T04:33:13;-3.50;99.90
37906;DHT22;23739;51.448;6.674;2022-12-18T04:35:42;-3.40;99.90
37906;DHT22;23739;51.448;6.674;2022-12-18T04:38:07;-3.40;99.90
37906;DHT22;23739;51.448;6.674;2022-12-18T04:40:33;-3.50;99.90
37906;DHT22;23739;51.448;6.674;2022-12-18T04:43:02;-2.80;99.90
37906;DHT22;23739;51.448;6.674;2022-12-18T04:45:28;-3.60;99.90
37906;DHT22;23739;51.448;6.674;2022-12-18T04:47:53;-3.70;99.90
37906;DHT22;23739;51.448;6.674;2022-12-18T04:50:19;-3.60;99.90
37906;DHT22;23739;51.448;6.674;2022-12-18T04:52:44;-3.60;99.90
37906;DHT22;23739;51.448;6.674;2022-12-18T04:55:10;-3.60;99.90
37906;DHT22;23739;51.448;6.674;2022-12-18T04:57:35;-3.70;99.90
37906;DHT22;23739;51.448;6.674;2022-12-18T05:00:02;-3.70;99.90
37906;DHT22;23739;51.448;6.674;2022-12-18T05:02:28;-3.80;99.90
37906;DHT22;23739;51.448;6.674;2022-12-18T05:04:53;-3.70;99.90
37906;DHT22;23739;51.448;6.674;2022-12-18T05:07:19;-3.80;99.90
37906;DHT22;23739;51.448;6.674;2022-12-18T05:09:44;-3.80;99.90
37906;DHT22;23739;51.448;6.674;2022-12-18T05:12:10;-3.90;99.90
37906;DHT22;23739;51.448;6.674;2022-12-18T05:14:36;-3.80;99.90
37906;DHT22;23739;51.448;6.674;2022-12-18T05:17:01;-3.90;99.90
37906;DHT22;23739;51.448;6.674;2022-12-18T05:19:27;-3.70;99.90
37906;DHT22;23739;51.448;6.674;2022-12-18T05:21:52;-3.60;99.90
37906;DHT22;23739;51.448;6.674;2022-12-18T05:24:18;-3.80;99.90
37906;DHT22;23739;51.448;6.674;2022-12-18T05:26:43;-3.80;99.90
37906;DHT22;23739;51.448;6.674;2022-12-18T05:29:09;-3.90;99.90
37906;DHT22;23739;51.448;6.674;2022-12-18T05:31:37;-3.90;99.90
37906;DHT22;23739;51.448;6.674;2022-12-18T05:34:03;-4.00;99.90
37906;DHT22;23739;51.448;6.674;2022-12-18T05:36:29;-4.00;99.90
37906;DHT22;23739;51.448;6.674;2022-12-18T05:38:54;-2.10;99.90
37906;DHT22;23739;51.448;6.674;2022-12-18T05:41:20;-3.90;99.90
37906;DHT22;23739;51.448;6.674;2022-12-18T05:43:45;-3.80;99.90
37906;DHT22;23739;51.448;6.674;2022-12-18T05:46:12;-3.80;99.90
37906;DHT22;23739;51.448;6.674;2022-12-18T05:48:38;-3.90;99.90
37906;DHT22;23739;51.448;6.674;2022-12-18T05:51:05;-3.90;99.90
37906;DHT22;23739;51.448;6.674;2022-12-18T05:53:31;-4.00;99.90
37906;DHT22;23739;51.448;6.674;2022-12-18T05:55:59;-4.10;99.90
37906;DHT22;23739;51.448;6.674;2022-12-18T05:58:27;-4.10;99.90
37906;DHT22;23739;51.448;6.674;2022-12-18T06:00:52;-4.20;99.90
37906;DHT22;23739;51.448;6.674;2022-12-18T06:03:18;-4.10;99.90
37906;DHT22;23739;51.448;6.674;2022-12-18T06:05:44;-4.10;99.90
37906;DHT22;23739;51.448;6.674;2022-12-18T06:08:10;-4.20;99.90
37906;DHT22;23739;51.448;6.674;2022-12-18T06:10:36;-4.30;99.90
37906;DHT22;23739;51.448;6.674;2022-12-18T06:13:01;-4.10;99.90
37906;DHT22;23739;51.448;6.674;2022-12-18T06:15:27;-4.00;99.90
37906;DHT22;23739;51.448;6.674;2022-12-18T06:17:53;-4.10;99.90
37906;DHT22;23739;51.448;6.674;2022-12-18T06:20:18;-4.10;99.90
37906;DHT22;23739;51.448;6.674;2022-12-18T06:22:44;-4.20;99.90
37906;DHT22;23739;51.448;6.674;2022-12-18T06:25:10;-4.40;99.90
37906;DHT22;23739;51.448;6.674;2022-12-18T06:27:35;-4.60;99.90
37906;DHT22;23739;51.448;6.674;2022-12-18T06:30:01;-4.60;99.90
37906;DHT22;23739;51.448;6.674;2022-12-18T06:32:27;-4.70;99.90
37906;DHT22;23739;51.448;6.674;2022-12-18T06:34:52;-4.60;99.90
37906;DHT22;23739;51.448;6.674;2022-12-18T06:37:19;-4.70;99.90
37906;DHT22;23739;51.448;6.674;2022-12-18T06:39:44;-4.60;99.90
37906;DHT22;23739;51.448;6.674;2022-12-18T06:42:10;-4.70;99.90
37906;DHT22;23739;51.448;6.674;2022-12-18T06:44:36;-4.70;99.90
37906;DHT22;23739;51.448;6.674;2022-12-18T06:47:01;-4.70;99.90
37906;DHT22;23739;51.448;6.674;2022-12-18T06:49:27;-4.70;99.90
37906;DHT22;23739;51.448;6.674;2022-12-18T06:51:53;-4.50;99.90
37906;DHT22;23739;51.448;6.674;2022-12-18T06:54:18;-4.30;99.90
37906;DHT22;23739;51.448;6.674;2022-12-18T06:56:46;-4.10;99.90
37906;DHT22;23739;51.448;6.674;2022-12-18T06:59:12;-3.90;99.90
37906;DHT22;23739;51.448;6.674;2022-12-18T07:01:38;-3.90;99.90
37906;DHT22;23739;51.448;6.674;2022-12-18T07:04:04;-4.10;99.90
37906;DHT22;23739;51.448;6.674;2022-12-18T07:06:30;-4.10;99.90
37906;DHT22;23739;51.448;6.674;2022-12-18T07:08:55;-4.00;99.90
37906;DHT22;23739;51.448;6.674;2022-12-18T07:11:21;-4.00;99.90
37906;DHT22;23739;51.448;6.674;2022-12-18T07:13:46;-4.20;99.90
37906;DHT22;23739;51.448;6.674;2022-12-18T07:16:16;-4.30;99.90
37906;DHT22;23739;51.448;6.674;2022-12-18T07:18:42;-4.20;99.90
37906;DHT22;23739;51.448;6.674;2022-12-18T07:21:08;-4.10;99.90
37906;DHT22;23739;51.448;6.674;2022-12-18T07:23:34;-4.00;99.90
37906;DHT22;23739;51.448;6.674;2022-12-18T07:26:04;-4.10;99.90
37906;DHT22;23739;51.448;6.674;2022-12-18T07:28:30;-4.10;99.90
37906;DHT22;23739;51.448;6.674;2022-12-18T07:30:56;-4.10;99.90
37906;DHT22;23739;51.448;6.674;2022-12-18T07:33:21;-4.20;99.90
37906;DHT22;23739;51.448;6.674;2022-12-18T07:35:47;-4.10;99.90
37906;DHT22;23739;51.448;6.674;2022-12-18T07:38:12;-4.10;99.90
37906;DHT22;23739;51.448;6.674;2022-12-18T07:40:38;-4.10;99.90
37906;DHT22;23739;51.448;6.674;2022-12-18T07:43:04;-4.10;99.90
37906;DHT22;23739;51.448;6.674;2022-12-18T07:45:29;-4.10;99.90
37906;DHT22;23739;51.448;6.674;2022-12-18T07:47:55;-4.10;99.90
37906;DHT22;23739;51.448;6.674;2022-12-18T07:50:20;-4.10;99.90
37906;DHT22;23739;51.448;6.674;2022-12-18T07:52:46;-3.90;99.90
37906;DHT22;23739;51.448;6.674;2022-12-18T07:55:11;-3.70;99.90
37906;DHT22;23739;51.448;6.674;2022-12-18T07:57:37;-3.70;99.90
37906;DHT22;23739;51.448;6.674;2022-12-18T08:00:03;-3.70;99.90
37906;DHT22;23739;51.448;6.674;2022-12-18T08:02:30;-3.40;99.90
37906;DHT22;23739;51.448;6.674;2022-12-18T08:04:55;-3.40;99.90
37906;DHT22;23739;51.448;6.674;2022-12-18T08:07:21;-3.20;99.90
37906;DHT22;23739;51.448;6.674;2022-12-18T08:09:47;-3.00;99.90
37906;DHT22;23739;51.448;6.674;2022-12-18T08:12:12;-3.00;99.90
37906;DHT22;23739;51.448;6.674;2022-12-18T08:14:38;-2.90;99.90
37906;DHT22;23739;51.448;6.674;2022-12-18T08:17:04;-2.90;99.90
37906;DHT22;23739;51.448;6.674;2022-12-18T08:19:30;-2.70;99.90
37906;DHT22;23739;51.448;6.674;2022-12-18T08:21:56;-2.70;99.90
37906;DHT22;23739;51.448;6.674;2022-12-18T08:24:22;-2.50;99.90
37906;DHT22;23739;51.448;6.674;2022-12-18T08:26:48;-2.50;99.90
37906;DHT22;23739;51.448;6.674;2022-12-18T08:29:13;-2.40;99.90
37906;DHT22;23739;51.448;6.674;2022-12-18T08:31:39;-2.40;99.90
37906;DHT22;23739;51.448;6.674;2022-12-18T08:34:04;-2.20;99.90
37906;DHT22;23739;51.448;6.674;2022-12-18T08:36:30;-2.40;99.90
37906;DHT22;23739;51.448;6.674;2022-12-18T08:38:56;-2.30;99.90
37906;DHT22;23739;51.448;6.674;2022-12-18T08:41:22;-2.30;99.90
37906;DHT22;23739;51.448;6.674;2022-12-18T08:43:48;-2.20;99.90
37906;DHT22;23739;51.448;6.674;2022-12-18T08:46:36;-2.10;99.90
37906;DHT22;23739;51.448;6.674;2022-12-18T08:49:02;-1.90;99.90
37906;DHT22;23739;51.448;6.674;2022-12-18T08:51:28;-1.80;99.90
37906;DHT22;23739;51.448;6.674;2022-12-18T08:53:54;-1.70;99.90
37906;DHT22;23739;51.448;6.674;2022-12-18T08:56:19;-1.70;99.90
37906;DHT22;23739;51.448;6.674;2022-12-18T08:58:45;-1.70;99.90
37906;DHT22;23739;51.448;6.674;2022-12-18T09:01:11;-1.60;99.90
37906;DHT22;23739;51.448;6.674;2022-12-18T09:03:37;-1.40;99.90
37906;DHT22;23739;51.448;6.674;2022-12-18T09:06:03;-1.30;99.90
37906;DHT22;23739;51.448;6.674;2022-12-18T09:08:29;-1.30;99.90
37906;DHT22;23739;51.448;6.674;2022-12-18T09:10:55;-1.40;99.90
37906;DHT22;23739;51.448;6.674;2022-12-18T09:13:21;-1.40;99.90
37906;DHT22;23739;51.448;6.674;2022-12-18T09:15:51;-1.40;99.90
37906;DHT22;23739;51.448;6.674;2022-12-18T09:18:18;-1.20;99.90
37906;DHT22;23739;51.448;6.674;2022-12-18T09:20:43;-1.10;99.90
37906;DHT22;23739;51.448;6.674;2022-12-18T09:23:09;-1.20;99.90
37906;DHT22;23739;51.448;6.674;2022-12-18T09:25:35;-1.10;99.90
37906;DHT22;23739;51.448;6.674;2022-12-18T09:28:11;-0.90;99.90
37906;DHT22;23739;51.448;6.674;2022-12-18T09:30:47;-0.80;99.90
37906;DHT22;23739;51.448;6.674;2022-12-18T09:33:14;-0.70;99.90
37906;DHT22;23739;51.448;6.674;2022-12-18T09:35:40;-0.80;99.90
37906;DHT22;23739;51.448;6.674;2022-12-18T09:38:07;-0.70;99.90
37906;DHT22;23739;51.448;6.674;2022-12-18T09:40:40;-0.70;99.90
37906;DHT22;23739;51.448;6.674;2022-12-18T09:43:07;-0.60;99.90
37906;DHT22;23739;51.448;6.674;2022-12-18T09:45:40;-0.60;99.90
37906;DHT22;23739;51.448;6.674;2022-12-18T09:48:09;-0.60;99.90
37906;DHT22;23739;51.448;6.674;2022-12-18T09:50:37;-0.70;99.90
37906;DHT22;23739;51.448;6.674;2022-12-18T09:53:05;-0.60;99.90
37906;DHT22;23739;51.448;6.674;2022-12-18T09:55:33;-0.60;99.90
37906;DHT22;23739;51.448;6.674;2022-12-18T09:58:45;-0.50;99.90
37906;DHT22;23739;51.448;6.674;2022-12-18T10:00:51;-0.50;99.90
37906;DHT22;23739;51.448;6.674;2022-12-18T10:03:16;-0.50;99.90
37906;DHT22;23739;51.448;6.674;2022-12-18T10:11:03;-0.50;99.90
37906;DHT22;23739;51.448;6.674;2022-12-18T10:13:38;-0.40;99.90
37906;DHT22;23739;51.448;6.674;2022-12-18T10:24:27;-0.20;99.90
37906;DHT22;23739;51.448;6.674;2022-12-18T10:26:55;-0.20;99.90
37906;DHT22;23739;51.448;6.674;2022-12-18T10:29:25;-0.10;99.90
37906;DHT22;23739;51.448;6.674;2022-12-18T10:31:50;0.00;99.90
37906;DHT22;23739;51.448;6.674;2022-12-18T10:34:16;0.10;99.90
37906;DHT22;23739;51.448;6.674;2022-12-18T10:36:42;0.10;99.90
37906;DHT22;23739;51.448;6.674;2022-12-18T10:39:14;0.10;99.90
37906;DHT22;23739;51.448;6.674;2022-12-18T10:41:40;0.10;99.90
37906;DHT22;23739;51.448;6.674;2022-12-18T10:44:15;0.20;99.90
37906;DHT22;23739;51.448;6.674;2022-12-18T10:46:42;0.30;99.90
37906;DHT22;23739;51.448;6.674;2022-12-18T10:49:18;0.30;99.90
37906;DHT22;23739;51.448;6.674;2022-12-18T10:51:44;0.40;99.90
37906;DHT22;23739;51.448;6.674;2022-12-18T10:54:16;0.40;99.90
37906;DHT22;23739;51.448;6.674;2022-12-18T10:56:42;0.40;99.90
37906;DHT22;23739;51.448;6.674;2022-12-18T10:59:09;0.40;99.90
37906;DHT22;23739;51.448;6.674;2022-12-18T11:01:45;0.50;99.90
37906;DHT22;23739;51.448;6.674;2022-12-18T11:04:13;0.40;99.90
37906;DHT22;23739;51.448;6.674;2022-12-18T11:09:19;0.50;99.90
37906;DHT22;23739;51.448;6.674;2022-12-18T11:11:53;0.50;99.90
37906;DHT22;23739;51.448;6.674;2022-12-18T11:14:23;0.60;99.90
37906;DHT22;23739;51.448;6.674;2022-12-18T11:16:49;0.70;99.90
37906;DHT22;23739;51.448;6.674;2022-12-18T11:19:20;0.80;99.90
37906;DHT22;23739;51.448;6.674;2022-12-18T11:21:47;0.80;99.90
37906;DHT22;23739;51.448;6.674;2022-12-18T11:24:17;0.70;99.90
37906;DHT22;23739;51.448;6.674;2022-12-18T11:26:44;0.90;99.90
37906;DHT22;23739;51.448;6.674;2022-12-18T11:29:10;0.90;99.90
37906;DHT22;23739;51.448;6.674;2022-12-18T11:31:40;0.90;99.90
37906;DHT22;23739;51.448;6.674;2022-12-18T11:34:18;1.00;99.90
37906;DHT22;23739;51.448;6.674;2022-12-18T11:36:45;1.00;99.90
37906;DHT22;23739;51.448;6.674;2022-12-18T11:39:14;1.00;99.90
37906;DHT22;23739;51.448;6.674;2022-12-18T11:41:47;1.10;99.90
37906;DHT22;23739;51.448;6.674;2022-12-18T11:44:44;1.00;99.90
37906;DHT22;23739;51.448;6.674;2022-12-18T23:47:46;0.70;99.90
37906;DHT22;23739;51.448;6.674;2022-12-18T23:50:12;0.70;99.90
37906;DHT22;23739;51.448;6.674;2022-12-18T23:52:37;0.70;99.90
37906;DHT22;23739;51.448;6.674;2022-12-18T23:55:03;0.70;99.90
37906;DHT22;23739;51.448;6.674;2022-12-18T23:57:29;0.80;99.90
37906;DHT22;23739;51.448;6.674;2022-12-18T23:59:54;0.70;99.90
